PST,Max TemperatureF,Mean TemperatureF,Min TemperatureF,Max Dew PointF,MeanDew PointF,Min DewpointF,Max Humidity, Mean Humidity, Min Humidity, Max Sea Level PressureIn, Mean Sea Level PressureIn, Min Sea Level PressureIn, Max VisibilityMiles, Mean VisibilityMiles, Min VisibilityMiles, Max Wind SpeedMPH, Mean Wind SpeedMPH, Max Gust SpeedMPH,PrecipitationIn, CloudCover, Events, WindDirDegrees
2012-2-1,50,42,34,41,38,31,93,81,59,30.46,30.11,29.86,10,10,5,10,4,18,0.18,4,Rain,225
2012-2-2,48,42,37,38,37,36,93,80,66,30.49,30.42,30.29,10,10,10,6,1,,0.00,3,,3
2012-2-3,53,45,37,38,36,33,89,78,57,30.28,30.17,30.10,10,10,10,9,4,,0.01,0,,343
2012-2-4,48,41,34,37,35,31,89,79,63,30.24,30.19,30.15,10,10,10,7,4,,0.01,0,,354
2012-2-5,48,40,33,36,34,31,92,76,61,30.27,30.23,30.17,10,10,8,8,2,,0.00,0,,343
2012-2-6,51,45,39,38,35,29,86,68,53,30.15,30.04,29.94,10,10,10,8,3,,0.01,0,,352
2012-2-7,57,50,44,39,30,25,71,48,28,29.99,29.91,29.87,10,10,10,12,7,,0.01,1,Rain,29
2012-2-8,53,50,46,45,42,37,83,76,66,30.28,30.15,30.01,10,10,10,15,8,29,0.06,8,Rain,97
2012-2-9,50,48,46,46,45,41,93,87,74,30.29,30.17,30.06,10,9,5,7,4,,0.35,8,Rain,36
2012-2-10,55,50,46,45,44,43,93,83,69,30.06,29.97,29.89,10,10,7,16,5,28,0.06,7,Rain,81
2012-2-11,48,47,46,43,41,40,87,79,71,30.13,30.09,30.03,10,10,10,16,10,22,0.00,8,,120
2012-2-12,46,44,43,42,40,39,93,83,74,30.12,30.00,29.92,10,9,6,10,6,,0.13,8,Rain,129
2012-2-13,46,40,35,41,39,33,93,85,68,30.07,30.01,29.95,10,10,5,10,2,,0.04,7,Rain,353
2012-2-14,46,40,33,40,37,30,96,87,66,30.21,29.98,29.90,10,9,1,7,1,,0.02,6,Rain,152
2012-2-15,48,40,32,39,35,30,93,86,66,30.39,30.31,30.21,10,8,2,9,1,,0.00,4,,147
2012-2-16,44,43,42,43,39,35,93,84,74,30.28,30.24,30.19,10,8,2,13,8,,0.00,8,Rain,74
2012-2-17,48,46,44,45,42,39,93,86,80,30.26,30.02,29.81,10,8,2,22,7,31,0.10,8,Rain,100
2012-2-18,46,42,39,41,39,36,93,85,80,30.03,29.87,29.81,10,8,2,16,8,28,0.22,8,Rain,168
2012-2-19,46,44,41,36,34,30,76,69,60,30.08,30.02,29.91,10,10,10,12,8,18,0.00,4,,149
2012-2-20,46,44,42,43,37,31,93,76,62,30.02,29.96,29.87,10,9,4,13,7,,0.06,8,Rain,103
2012-2-21,50,47,44,46,44,42,93,90,77,30.05,30.00,29.97,10,6,1,14,4,25,0.07,8,Rain,179
2012-2-22,52,48,43,42,37,34,82,69,56,30.29,30.10,29.95,10,10,10,15,9,25,0.00,3,,228
2012-2-23,51,43,35,36,34,32,89,70,54,30.39,30.34,30.27,10,10,10,10,5,20,0.00,4,Rain,227
2012-2-24,46,42,39,41,38,36,93,83,71,30.25,29.83,29.56,10,10,7,22,9,30,0.06,8,Rain,121
2012-2-25,48,44,39,39,32,25,93,70,48,30.15,29.89,29.56,10,10,5,14,6,26,0.06,7,Rain,233
2012-2-26,42,36,30,32,26,14,82,68,42,30.25,30.19,30.16,10,9,1,13,4,22,0.02,4,Rain-Snow,336
2012-2-27,41,33,25,26,19,14,76,57,43,30.27,30.17,29.98,10,10,10,8,3,,0.00,0,,13
2012-2-28,44,38,32,35,30,27,82,69,53,29.96,29.69,29.43,10,10,10,28,12,41,0.00,6,,108
2012-2-29,46,40,33,36,34,30,93,80,62,29.77,29.57,29.46,10,10,8,24,15,37,0.02,7,Rain,134